DucheSS Of Scandinavia — OUZI2 — position and weather

sailwx.info

Track history (hours):
 
Tides and Currents Weather Stations Pressure Air Temp Water Temp Dewpoint Dewpoint Depression Visibility Wind Speed Wind Dir Waves Ship Positions

DucheSS Of Scandinavia

Operator: DFDS A/S

Last reported at 2014-Jul-30 14:32 UTC. Time now 2014-Jul-30 15:15 UTC.
Position N 58°56' E 011°10'.

Length 134 m; draft 5.2 m.

Type: Passenger vessel. MMSI: 219002929.

Date/timePositionNaut miles runAvg speedWind from/ knotsBaromVisibWave heightAir tempDewpointWater temp
2014-Jul-30 14:32N 58°56' E 011°10'0 0.0
2014-Jul-30 13:31N 58°56' E 011°10'1010.8
2014-Jul-30 12:33N 59°01' E 010°52'1717.5
2014-Jul-30 11:33N 59°01' E 010°19'7 6.9
2014-Jul-30 10:33N 59°08' E 010°14'6 5.6
2014-Jul-30 09:33N 59°02' E 010°16'1616.3
2014-Jul-30 08:33N 59°02' E 010°47'1312.9
2014-Jul-30 07:33N 58°56' E 011°10'7 6.9
2014-Jul-30 06:33N 58°60' E 010°59'1616.4
2014-Jul-30 05:33N 59°01' E 010°27'10 9.8
2014-Jul-30 04:33N 59°08' E 010°14'1 1.4
2014-Jul-30 03:33N 59°06' E 010°14'0 0.1
2014-Jul-30 02:32N 59°06' E 010°14'0 0.0
2014-Jul-30 01:33N 59°06' E 010°14'0 0.0
2014-Jul-30 00:33N 59°06' E 010°14'0 0.0
2014-Jul-29 23:33N 59°06' E 010°14'0 0.0
2014-Jul-29 22:33N 59°06' E 010°14'0 0.0
2014-Jul-29 21:33N 59°06' E 010°14'0 0.0
2014-Jul-29 20:33N 59°06' E 010°14'0 0.0
2014-Jul-29 19:33N 59°06' E 010°14'0 0.0
2014-Jul-29 18:32N 59°06' E 010°14'1 1.1
2014-Jul-29 17:33N 59°07' E 010°14'3 2.7
2014-Jul-29 16:34N 59°05' E 010°15'1414.4
2014-Jul-29 15:33N 59°02' E 010°42'1515.2
2014-Jul-29 14:33N 58°56' E 011°09'0 0.4
2014-Jul-29 13:33N 58°56' E 011°10'1010.4
2014-Jul-29 12:33N 59°01' E 010°52'1716.7
2014-Jul-29 11:33N 59°01' E 010°20'7 7.0
2014-Jul-29 10:33N 59°08' E 010°14'6 5.6
2014-Jul-29 09:33N 59°02' E 010°16'1716.5
2014-Jul-29 08:33N 59°02' E 010°48'1312.4
2014-Jul-29 07:31N 58°56' E 011°10'7 7.0
2014-Jul-29 06:34N 58°60' E 010°59'1716.6
2014-Jul-29 05:33N 59°01' E 010°27'10 9.7
2014-Jul-29 04:33N 59°08' E 010°14'1 1.5
2014-Jul-29 03:34N 59°06' E 010°14'0 0.0
2014-Jul-29 02:30N 59°06' E 010°14'0 0.0
2014-Jul-29 01:33N 59°06' E 010°14'0 0.0
2014-Jul-29 00:32N 59°06' E 010°14'0 0.0
2014-Jul-28 23:33N 59°06' E 010°14'0 0.0
2014-Jul-28 22:32N 59°06' E 010°14'0 0.0
2014-Jul-28 21:33N 59°06' E 010°14'0 0.0
2014-Jul-28 20:33N 59°06' E 010°14'0 0.0
2014-Jul-28 19:33N 59°06' E 010°14'0 0.0
2014-Jul-28 18:33N 59°06' E 010°14'1 1.4
2014-Jul-28 17:33N 59°08' E 010°14'3 2.9
2014-Jul-28 16:33N 59°05' E 010°15'1414.1
2014-Jul-28 15:33N 59°01' E 010°41'1515.4
2014-Jul-28 14:33N 58°56' E 011°09'1 0.5
2014-Jul-28 13:32N 58°56' E 011°10'1111.2
2014-Jul-28 12:33N 59°01' E 010°51'1716.7
2014-Jul-28 11:33N 59°01' E 010°19'7 6.6
2014-Jul-28 10:33N 59°08' E 010°14'6 5.6
2014-Jul-28 09:33N 59°02' E 010°16'1716.8
2014-Jul-28 08:33N 59°02' E 010°48'1312.7
2014-Jul-28 07:33N 58°56' E 011°10'6 5.6
2014-Jul-28 06:33N 58°59' E 011°01'1716.7
2014-Jul-28 05:33N 59°00' E 010°28'1010.3
2014-Jul-28 04:33N 59°08' E 010°14'1 1.2
2014-Jul-28 03:33N 59°06' E 010°14'0 0.3
2014-Jul-28 02:33N 59°06' E 010°14'0 0.0
2014-Jul-28 01:33N 59°06' E 010°14'0 0.0
2014-Jul-28 00:33N 59°06' E 010°14'0 0.0
2014-Jul-27 23:33N 59°06' E 010°14'0 0.0
2014-Jul-27 22:33N 59°06' E 010°14'0 0.0
2014-Jul-27 21:33N 59°06' E 010°14'0 0.0
2014-Jul-27 20:33N 59°06' E 010°14'0 0.0
2014-Jul-27 19:33N 59°06' E 010°14'0 0.0
2014-Jul-27 18:33N 59°06' E 010°14'1 0.6
2014-Jul-27 17:33N 59°07' E 010°14'1 0.8
2014-Jul-27 16:33N 59°06' E 010°14'1413.7
2014-Jul-27 15:33N 59°01' E 010°39'1616.0
2014-Jul-27 14:32N 58°56' E 011°09'1 0.7
2014-Jul-27 13:33N 58°56' E 011°10'1111.4
2014-Jul-27 12:33N 59°01' E 010°51'1717.4
2014-Jul-27 11:33N 59°02' E 010°17'6 6.2
2014-Jul-27 10:33N 59°08' E 010°14'5 4.6
2014-Jul-27 09:33N 59°03' E 010°15'1616.3
2014-Jul-27 08:33N 59°02' E 010°47'1313.4
2014-Jul-27 07:33N 58°56' E 011°10'6 6.1
2014-Jul-27 06:32N 58°59' E 010°60'1717.2
2014-Jul-27 05:34N 59°01' E 010°27'10 9.8
2014-Jul-27 04:33N 59°08' E 010°14'1 1.4
2014-Jul-27 03:33N 59°06' E 010°14'0 0.0
2014-Jul-27 02:33N 59°06' E 010°14'0 0.0
2014-Jul-27 01:34N 59°06' E 010°14'0 0.0
2014-Jul-27 00:33N 59°06' E 010°14'0 0.0
2014-Jul-26 23:33N 59°06' E 010°14'0 0.0
2014-Jul-26 22:33N 59°06' E 010°14'0 0.0
2014-Jul-26 21:33N 59°06' E 010°14'0 0.0
2014-Jul-26 20:34N 59°06' E 010°14'0 0.0
2014-Jul-26 19:33N 59°06' E 010°14'0 0.0
2014-Jul-26 18:33N 59°06' E 010°14'1 1.4
2014-Jul-26 17:34N 59°08' E 010°14'3 2.5
2014-Jul-26 16:33N 59°05' E 010°15'1414.1
2014-Jul-26 15:33N 59°01' E 010°41'1515.5
2014-Jul-26 14:33N 58°56' E 011°09'1 0.7
2014-Jul-26 13:33N 58°56' E 011°10'1212.0
2014-Jul-26 12:33N 59°01' E 010°49'1716.9
2014-Jul-26 11:33N 59°01' E 010°17'6 6.3
2014-Jul-26 10:33N 59°08' E 010°14'7 6.6
2014-Jul-26 09:33N 59°01' E 010°19'1717.0
2014-Jul-26 08:33N 59°01' E 010°51'1110.9
2014-Jul-26 07:33N 58°56' E 011°10'8 7.9
2014-Jul-26 06:33N 59°00' E 010°57'1716.9
2014-Jul-26 05:33N 59°01' E 010°24'9 8.7
2014-Jul-26 04:33N 59°08' E 010°14'1 1.4
2014-Jul-26 03:33N 59°06' E 010°14'0 0.1
2014-Jul-26 02:33N 59°06' E 010°14'0 0.0
2014-Jul-26 01:33N 59°06' E 010°14'0 0.0
2014-Jul-26 00:33N 59°06' E 010°14'0 0.0
2014-Jul-25 23:33N 59°06' E 010°14'0 0.0
2014-Jul-25 22:33N 59°06' E 010°14'0 0.0
2014-Jul-25 21:33N 59°06' E 010°14'0 0.0
2014-Jul-25 20:33N 59°06' E 010°14'0 0.0
2014-Jul-25 19:33N 59°06' E 010°14'0 0.0
2014-Jul-25 18:33N 59°06' E 010°14'1 1.4
2014-Jul-25 17:33N 59°08' E 010°14'2 2.0
2014-Jul-25 16:33N 59°06' E 010°14'1414.0
2014-Jul-25 15:33N 59°01' E 010°40'1615.6
2014-Jul-25 14:33N 58°56' E 011°08'1 0.9
2014-Jul-25 13:33N 58°56' E 011°10'1313.1
2014-Jul-25 12:33N 59°02' E 010°47'1616.4
2014-Jul-25 11:33N 59°02' E 010°15'5 5.2
2014-Jul-25 10:33N 59°08' E 010°14'6 6.5
2014-Jul-25 09:33N 59°01' E 010°17'1716.8
2014-Jul-25 08:34N 59°01' E 010°50'1211.7
2014-Jul-25 07:33N 58°56' E 011°10'8 8.0
2014-Jul-25 06:33N 59°00' E 010°57'1716.7
2014-Jul-25 05:34N 59°01' E 010°24'9 8.6
2014-Jul-25 04:32N 59°08' E 010°14'1 1.4
2014-Jul-25 03:33N 59°06' E 010°14'0 0.1
2014-Jul-25 02:19N 59°06' E 010°14'0 0.0
2014-Jul-25 01:31N 59°06' E 010°14'0 0.0
2014-Jul-25 00:32N 59°06' E 010°14'0 0.0
2014-Jul-24 23:33N 59°06' E 010°14'0 0.0
2014-Jul-24 22:33N 59°06' E 010°14'0 0.0
2014-Jul-24 21:31N 59°06' E 010°14'0 0.0
2014-Jul-24 20:32N 59°06' E 010°14'0 0.0
2014-Jul-24 19:32N 59°06' E 010°14'0 0.0
2014-Jul-24 18:33N 59°06' E 010°14'1 1.2
2014-Jul-24 17:33N 59°07' E 010°14'2 1.9
2014-Jul-24 16:33N 59°05' E 010°14'1414.3
2014-Jul-24 15:33N 59°01' E 010°41'1515.4
2014-Jul-24 14:33N 58°56' E 011°09'1 0.7
2014-Jul-24 13:33N 58°56' E 011°10'1212.2
2014-Jul-24 12:34N 59°01' E 010°49'1716.6
2014-Jul-24 11:33N 59°01' E 010°17'6 6.3
2014-Jul-24 10:33N 59°08' E 010°14'5 4.7
2014-Jul-24 09:33N 59°03' E 010°15'1716.7
2014-Jul-24 08:33N 59°02' E 010°48'1312.9
2014-Jul-24 07:33N 58°56' E 011°10'8 8.5
2014-Jul-24 06:33N 59°00' E 010°56'1616.5
2014-Jul-24 05:33N 59°01' E 010°24'9 8.6
2014-Jul-24 04:33N 59°08' E 010°14'1 1.4
2014-Jul-24 03:33N 59°06' E 010°14'0 0.1
2014-Jul-24 02:33N 59°06' E 010°14'0 0.0
2014-Jul-24 01:33N 59°06' E 010°14'0 0.0
2014-Jul-24 00:33N 59°06' E 010°14'0 0.0
2014-Jul-23 23:33N 59°06' E 010°14'0 0.0
2014-Jul-23 22:33N 59°06' E 010°14'0 0.0
2014-Jul-23 21:33N 59°06' E 010°14'0 0.0
2014-Jul-23 20:33N 59°06' E 010°14'0 0.0
2014-Jul-23 19:33N 59°06' E 010°14'0 0.0
2014-Jul-23 18:33N 59°06' E 010°14'1 1.4
2014-Jul-23 17:33N 59°08' E 010°14'2 2.3
2014-Jul-23 16:33N 59°05' E 010°14'1414.4
2014-Jul-23 15:33N 59°02' E 010°42'1515.2
2014-Jul-23 14:32N 58°56' E 011°09'0 0.3
2014-Jul-23 13:33N 58°56' E 011°10'1212.1
2014-Jul-23 12:34N 59°01' E 010°49'1716.7
2014-Jul-23 11:34N 59°01' E 010°17'6 6.4
2014-Jul-23 10:33N 59°08' E 010°14'6 6.0
2014-Jul-23 09:33N 59°02' E 010°16'1717.4
2014-Jul-23 08:33N 59°01' E 010°50'1211.7
2014-Jul-23 07:33N 58°56' E 011°10'7 7.4
2014-Jul-23 06:33N 58°60' E 010°58'1716.6
2014-Jul-23 05:33N 59°01' E 010°26'9 9.3
2014-Jul-23 04:33N 59°08' E 010°14'1 1.4
2014-Jul-23 03:34N 59°06' E 010°14'0 0.1
2014-Jul-23 02:33N 59°06' E 010°14'0 0.0
2014-Jul-23 01:33N 59°06' E 010°14'0 0.0
2014-Jul-23 00:33N 59°06' E 010°14'0 0.0
2014-Jul-22 23:33N 59°06' E 010°14'0 0.0
2014-Jul-22 22:33N 59°06' E 010°14'0 0.0
2014-Jul-22 21:33N 59°06' E 010°14'0 0.0
2014-Jul-22 20:33N 59°06' E 010°14'0 0.0
2014-Jul-22 19:33N 59°06' E 010°14'0 0.0
2014-Jul-22 18:33N 59°06' E 010°14'1 0.8
2014-Jul-22 17:33N 59°07' E 010°14'2 2.0
2014-Jul-22 16:33N 59°05' E 010°15'1514.6
2014-Jul-22 15:33N 59°01' E 010°42'1515.0
2014-Jul-22 14:32N 58°56' E 011°09'0 0.4
2014-Jul-22 13:33N 58°56' E 011°10'1111.4
2014-Jul-22 12:33N 59°01' E 010°50'1717.2
2014-Jul-22 11:33N 59°01' E 010°17'6 6.3
2014-Jul-22 10:33N 59°08' E 010°14'6 6.2
2014-Jul-22 09:33N 59°02' E 010°17'1717.3
2014-Jul-22 08:33N 59°01' E 010°51'1111.5
2014-Jul-22 07:33N 58°56' E 011°10'8 8.1
2014-Jul-22 06:33N 59°00' E 010°57'1716.9
2014-Jul-22 05:33N 59°01' E 010°24'9 8.6
2014-Jul-22 04:33N 59°08' E 010°14'1 1.4
2014-Jul-22 03:33N 59°06' E 010°14'0 0.1
2014-Jul-22 02:33N 59°06' E 010°14'0 0.0
2014-Jul-22 01:33N 59°06' E 010°14'0 0.0
2014-Jul-22 00:33N 59°06' E 010°14'0 0.0
2014-Jul-21 23:33N 59°06' E 010°14'0 0.0
2014-Jul-21 22:33N 59°06' E 010°14'0 0.0
2014-Jul-21 21:33N 59°06' E 010°14'0 0.0
2014-Jul-21 20:34N 59°06' E 010°14'0 0.0
2014-Jul-21 20:18N 59°06' E 010°14'0 0.0
2014-Jul-21 19:33N 59°06' E 010°14'0 0.0
2014-Jul-21 18:33N 59°06' E 010°14'1 1.2
2014-Jul-21 17:33N 59°07' E 010°14'2 2.1
2014-Jul-21 16:33N 59°05' E 010°14'1414.0
2014-Jul-21 15:33N 59°01' E 010°41'1615.3
2014-Jul-21 14:32N 58°56' E 011°09'1 0.7
2014-Jul-21 13:33N 58°56' E 011°10'1312.8
2014-Jul-21 12:33N 59°02' E 010°48'1716.6
2014-Jul-21 11:33N 59°02' E 010°16'6 5.7
2014-Jul-21 10:33N 59°08' E 010°14'6 6.1
2014-Jul-21 09:33N 59°02' E 010°16'1717.4
2014-Jul-21 08:33N 59°01' E 010°50'1211.5
2014-Jul-21 07:33N 58°56' E 011°10'9 8.6
2014-Jul-21 06:33N 59°00' E 010°56'1716.7
2014-Jul-21 05:33N 59°01' E 010°23'8 8.5
2014-Jul-21 04:33N 59°08' E 010°14'1 1.4
2014-Jul-21 03:33N 59°06' E 010°14'0 0.1
2014-Jul-21 02:33N 59°06' E 010°14'0 0.0
2014-Jul-21 01:33N 59°06' E 010°14'0 0.0
2014-Jul-21 00:33N 59°06' E 010°14'0 0.0
2014-Jul-20 23:33N 59°06' E 010°14'0 0.0
2014-Jul-20 22:33N 59°06' E 010°14'0 0.0
2014-Jul-20 21:33N 59°06' E 010°14'0 0.0
2014-Jul-20 20:33N 59°06' E 010°14'0 0.0
2014-Jul-20 19:33N 59°06' E 010°14'0 0.0
2014-Jul-20 18:33N 59°06' E 010°14'1 1.1
2014-Jul-20 17:31N 59°07' E 010°14'2 1.6
2014-Jul-20 16:33N 59°06' E 010°14'1413.9
2014-Jul-20 15:33N 59°01' E 010°40'  
Track history (hours):
 
Tides and Currents Weather Stations Pressure Air Temp Water Temp Dewpoint Dewpoint Depression Visibility Wind Speed Wind Dir Waves Ship Positions

DucheSS Of Scandinavia

Operator: DFDS A/S

Last reported at 2014-Jul-30 14:32 UTC. Time now 2014-Jul-30 15:15 UTC.
Position N 58°56' E 011°10'.

Length 134 m; draft 5.2 m.

Type: Passenger vessel. MMSI: 219002929.

Date/timePositionNaut miles runAvg speedWind from/ knotsBaromVisibWave heightAir tempDewpointWater temp
2014-Jul-30 14:32N 58°56' E 011°10'0 0.0
2014-Jul-30 13:31N 58°56' E 011°10'1010.8
2014-Jul-30 12:33N 59°01' E 010°52'1717.5
2014-Jul-30 11:33N 59°01' E 010°19'7 6.9
2014-Jul-30 10:33N 59°08' E 010°14'6 5.6
2014-Jul-30 09:33N 59°02' E 010°16'1616.3
2014-Jul-30 08:33N 59°02' E 010°47'1312.9
2014-Jul-30 07:33N 58°56' E 011°10'7 6.9
2014-Jul-30 06:33N 58°60' E 010°59'1616.4
2014-Jul-30 05:33N 59°01' E 010°27'10 9.8
2014-Jul-30 04:33N 59°08' E 010°14'1 1.4
2014-Jul-30 03:33N 59°06' E 010°14'0 0.1
2014-Jul-30 02:32N 59°06' E 010°14'0 0.0
2014-Jul-30 01:33N 59°06' E 010°14'0 0.0
2014-Jul-30 00:33N 59°06' E 010°14'0 0.0
2014-Jul-29 23:33N 59°06' E 010°14'0 0.0
2014-Jul-29 22:33N 59°06' E 010°14'0 0.0
2014-Jul-29 21:33N 59°06' E 010°14'0 0.0
2014-Jul-29 20:33N 59°06' E 010°14'0 0.0
2014-Jul-29 19:33N 59°06' E 010°14'0 0.0
2014-Jul-29 18:32N 59°06' E 010°14'1 1.1
2014-Jul-29 17:33N 59°07' E 010°14'3 2.7
2014-Jul-29 16:34N 59°05' E 010°15'1414.4
2014-Jul-29 15:33N 59°02' E 010°42'1515.2
2014-Jul-29 14:33N 58°56' E 011°09'0 0.4
2014-Jul-29 13:33N 58°56' E 011°10'1010.4
2014-Jul-29 12:33N 59°01' E 010°52'1716.7
2014-Jul-29 11:33N 59°01' E 010°20'7 7.0
2014-Jul-29 10:33N 59°08' E 010°14'6 5.6
2014-Jul-29 09:33N 59°02' E 010°16'1716.5
2014-Jul-29 08:33N 59°02' E 010°48'1312.4
2014-Jul-29 07:31N 58°56' E 011°10'7 7.0
2014-Jul-29 06:34N 58°60' E 010°59'1716.6
2014-Jul-29 05:33N 59°01' E 010°27'10 9.7
2014-Jul-29 04:33N 59°08' E 010°14'1 1.5
2014-Jul-29 03:34N 59°06' E 010°14'0 0.0
2014-Jul-29 02:30N 59°06' E 010°14'0 0.0
2014-Jul-29 01:33N 59°06' E 010°14'0 0.0
2014-Jul-29 00:32N 59°06' E 010°14'0 0.0
2014-Jul-28 23:33N 59°06' E 010°14'0 0.0
2014-Jul-28 22:32N 59°06' E 010°14'0 0.0
2014-Jul-28 21:33N 59°06' E 010°14'0 0.0
2014-Jul-28 20:33N 59°06' E 010°14'0 0.0
2014-Jul-28 19:33N 59°06' E 010°14'0 0.0
2014-Jul-28 18:33N 59°06' E 010°14'1 1.4
2014-Jul-28 17:33N 59°08' E 010°14'3 2.9
2014-Jul-28 16:33N 59°05' E 010°15'1414.1
2014-Jul-28 15:33N 59°01' E 010°41'1515.4
2014-Jul-28 14:33N 58°56' E 011°09'1 0.5
2014-Jul-28 13:32N 58°56' E 011°10'1111.2
2014-Jul-28 12:33N 59°01' E 010°51'1716.7
2014-Jul-28 11:33N 59°01' E 010°19'7 6.6
2014-Jul-28 10:33N 59°08' E 010°14'6 5.6
2014-Jul-28 09:33N 59°02' E 010°16'1716.8
2014-Jul-28 08:33N 59°02' E 010°48'1312.7
2014-Jul-28 07:33N 58°56' E 011°10'6 5.6
2014-Jul-28 06:33N 58°59' E 011°01'1716.7
2014-Jul-28 05:33N 59°00' E 010°28'1010.3
2014-Jul-28 04:33N 59°08' E 010°14'1 1.2
2014-Jul-28 03:33N 59°06' E 010°14'0 0.3
2014-Jul-28 02:33N 59°06' E 010°14'0 0.0
2014-Jul-28 01:33N 59°06' E 010°14'0 0.0
2014-Jul-28 00:33N 59°06' E 010°14'0 0.0
2014-Jul-27 23:33N 59°06' E 010°14'0 0.0
2014-Jul-27 22:33N 59°06' E 010°14'0 0.0
2014-Jul-27 21:33N 59°06' E 010°14'0 0.0
2014-Jul-27 20:33N 59°06' E 010°14'0 0.0
2014-Jul-27 19:33N 59°06' E 010°14'0 0.0
2014-Jul-27 18:33N 59°06' E 010°14'1 0.6
2014-Jul-27 17:33N 59°07' E 010°14'1 0.8
2014-Jul-27 16:33N 59°06' E 010°14'1413.7
2014-Jul-27 15:33N 59°01' E 010°39'1616.0
2014-Jul-27 14:32N 58°56' E 011°09'1 0.7
2014-Jul-27 13:33N 58°56' E 011°10'1111.4
2014-Jul-27 12:33N 59°01' E 010°51'1717.4
2014-Jul-27 11:33N 59°02' E 010°17'6 6.2
2014-Jul-27 10:33N 59°08' E 010°14'5 4.6
2014-Jul-27 09:33N 59°03' E 010°15'1616.3
2014-Jul-27 08:33N 59°02' E 010°47'1313.4
2014-Jul-27 07:33N 58°56' E 011°10'6 6.1
2014-Jul-27 06:32N 58°59' E 010°60'1717.2
2014-Jul-27 05:34N 59°01' E 010°27'10 9.8
2014-Jul-27 04:33N 59°08' E 010°14'1 1.4
2014-Jul-27 03:33N 59°06' E 010°14'0 0.0
2014-Jul-27 02:33N 59°06' E 010°14'0 0.0
2014-Jul-27 01:34N 59°06' E 010°14'0 0.0
2014-Jul-27 00:33N 59°06' E 010°14'0 0.0
2014-Jul-26 23:33N 59°06' E 010°14'0 0.0
2014-Jul-26 22:33N 59°06' E 010°14'0 0.0
2014-Jul-26 21:33N 59°06' E 010°14'0 0.0
2014-Jul-26 20:34N 59°06' E 010°14'0 0.0
2014-Jul-26 19:33N 59°06' E 010°14'0 0.0
2014-Jul-26 18:33N 59°06' E 010°14'1 1.4
2014-Jul-26 17:34N 59°08' E 010°14'3 2.5
2014-Jul-26 16:33N 59°05' E 010°15'1414.1
2014-Jul-26 15:33N 59°01' E 010°41'1515.5
2014-Jul-26 14:33N 58°56' E 011°09'1 0.7
2014-Jul-26 13:33N 58°56' E 011°10'1212.0
2014-Jul-26 12:33N 59°01' E 010°49'1716.9
2014-Jul-26 11:33N 59°01' E 010°17'6 6.3
2014-Jul-26 10:33N 59°08' E 010°14'7 6.6
2014-Jul-26 09:33N 59°01' E 010°19'1717.0
2014-Jul-26 08:33N 59°01' E 010°51'1110.9
2014-Jul-26 07:33N 58°56' E 011°10'8 7.9
2014-Jul-26 06:33N 59°00' E 010°57'1716.9
2014-Jul-26 05:33N 59°01' E 010°24'9 8.7
2014-Jul-26 04:33N 59°08' E 010°14'1 1.4
2014-Jul-26 03:33N 59°06' E 010°14'0 0.1
2014-Jul-26 02:33N 59°06' E 010°14'0 0.0
2014-Jul-26 01:33N 59°06' E 010°14'0 0.0
2014-Jul-26 00:33N 59°06' E 010°14'0 0.0
2014-Jul-25 23:33N 59°06' E 010°14'0 0.0
2014-Jul-25 22:33N 59°06' E 010°14'0 0.0
2014-Jul-25 21:33N 59°06' E 010°14'0 0.0
2014-Jul-25 20:33N 59°06' E 010°14'0 0.0
2014-Jul-25 19:33N 59°06' E 010°14'0 0.0
2014-Jul-25 18:33N 59°06' E 010°14'1 1.4
2014-Jul-25 17:33N 59°08' E 010°14'2 2.0
2014-Jul-25 16:33N 59°06' E 010°14'1414.0
2014-Jul-25 15:33N 59°01' E 010°40'1615.6
2014-Jul-25 14:33N 58°56' E 011°08'1 0.9
2014-Jul-25 13:33N 58°56' E 011°10'1313.1
2014-Jul-25 12:33N 59°02' E 010°47'1616.4
2014-Jul-25 11:33N 59°02' E 010°15'5 5.2
2014-Jul-25 10:33N 59°08' E 010°14'6 6.5
2014-Jul-25 09:33N 59°01' E 010°17'1716.8
2014-Jul-25 08:34N 59°01' E 010°50'1211.7
2014-Jul-25 07:33N 58°56' E 011°10'8 8.0
2014-Jul-25 06:33N 59°00' E 010°57'1716.7
2014-Jul-25 05:34N 59°01' E 010°24'9 8.6
2014-Jul-25 04:32N 59°08' E 010°14'1 1.4
2014-Jul-25 03:33N 59°06' E 010°14'0 0.1
2014-Jul-25 02:19N 59°06' E 010°14'0 0.0
2014-Jul-25 01:31N 59°06' E 010°14'0 0.0
2014-Jul-25 00:32N 59°06' E 010°14'0 0.0
2014-Jul-24 23:33N 59°06' E 010°14'0 0.0
2014-Jul-24 22:33N 59°06' E 010°14'0 0.0
2014-Jul-24 21:31N 59°06' E 010°14'0 0.0
2014-Jul-24 20:32N 59°06' E 010°14'0 0.0
2014-Jul-24 19:32N 59°06' E 010°14'0 0.0
2014-Jul-24 18:33N 59°06' E 010°14'1 1.2
2014-Jul-24 17:33N 59°07' E 010°14'2 1.9
2014-Jul-24 16:33N 59°05' E 010°14'1414.3
2014-Jul-24 15:33N 59°01' E 010°41'1515.4
2014-Jul-24 14:33N 58°56' E 011°09'1 0.7
2014-Jul-24 13:33N 58°56' E 011°10'1212.2
2014-Jul-24 12:34N 59°01' E 010°49'1716.6
2014-Jul-24 11:33N 59°01' E 010°17'6 6.3
2014-Jul-24 10:33N 59°08' E 010°14'5 4.7
2014-Jul-24 09:33N 59°03' E 010°15'1716.7
2014-Jul-24 08:33N 59°02' E 010°48'1312.9
2014-Jul-24 07:33N 58°56' E 011°10'8 8.5
2014-Jul-24 06:33N 59°00' E 010°56'1616.5
2014-Jul-24 05:33N 59°01' E 010°24'9 8.6
2014-Jul-24 04:33N 59°08' E 010°14'1 1.4
2014-Jul-24 03:33N 59°06' E 010°14'0 0.1
2014-Jul-24 02:33N 59°06' E 010°14'0 0.0
2014-Jul-24 01:33N 59°06' E 010°14'0 0.0
2014-Jul-24 00:33N 59°06' E 010°14'0 0.0
2014-Jul-23 23:33N 59°06' E 010°14'0 0.0
2014-Jul-23 22:33N 59°06' E 010°14'0 0.0
2014-Jul-23 21:33N 59°06' E 010°14'0 0.0
2014-Jul-23 20:33N 59°06' E 010°14'0 0.0
2014-Jul-23 19:33N 59°06' E 010°14'0 0.0
2014-Jul-23 18:33N 59°06' E 010°14'1 1.4
2014-Jul-23 17:33N 59°08' E 010°14'2 2.3
2014-Jul-23 16:33N 59°05' E 010°14'1414.4
2014-Jul-23 15:33N 59°02' E 010°42'1515.2
2014-Jul-23 14:32N 58°56' E 011°09'0 0.3
2014-Jul-23 13:33N 58°56' E 011°10'1212.1
2014-Jul-23 12:34N 59°01' E 010°49'1716.7
2014-Jul-23 11:34N 59°01' E 010°17'6 6.4
2014-Jul-23 10:33N 59°08' E 010°14'6 6.0
2014-Jul-23 09:33N 59°02' E 010°16'1717.4
2014-Jul-23 08:33N 59°01' E 010°50'1211.7
2014-Jul-23 07:33N 58°56' E 011°10'7 7.4
2014-Jul-23 06:33N 58°60' E 010°58'1716.6
2014-Jul-23 05:33N 59°01' E 010°26'9 9.3
2014-Jul-23 04:33N 59°08' E 010°14'1 1.4
2014-Jul-23 03:34N 59°06' E 010°14'0 0.1
2014-Jul-23 02:33N 59°06' E 010°14'0 0.0
2014-Jul-23 01:33N 59°06' E 010°14'0 0.0
2014-Jul-23 00:33N 59°06' E 010°14'0 0.0
2014-Jul-22 23:33N 59°06' E 010°14'0 0.0
2014-Jul-22 22:33N 59°06' E 010°14'0 0.0
2014-Jul-22 21:33N 59°06' E 010°14'0 0.0
2014-Jul-22 20:33N 59°06' E 010°14'0 0.0
2014-Jul-22 19:33N 59°06' E 010°14'0 0.0
2014-Jul-22 18:33N 59°06' E 010°14'1 0.8
2014-Jul-22 17:33N 59°07' E 010°14'2 2.0
2014-Jul-22 16:33N 59°05' E 010°15'1514.6
2014-Jul-22 15:33N 59°01' E 010°42'1515.0
2014-Jul-22 14:32N 58°56' E 011°09'0 0.4
2014-Jul-22 13:33N 58°56' E 011°10'1111.4
2014-Jul-22 12:33N 59°01' E 010°50'1717.2
2014-Jul-22 11:33N 59°01' E 010°17'6 6.3
2014-Jul-22 10:33N 59°08' E 010°14'6 6.2
2014-Jul-22 09:33N 59°02' E 010°17'1717.3
2014-Jul-22 08:33N 59°01' E 010°51'1111.5
2014-Jul-22 07:33N 58°56' E 011°10'8 8.1
2014-Jul-22 06:33N 59°00' E 010°57'1716.9
2014-Jul-22 05:33N 59°01' E 010°24'9 8.6
2014-Jul-22 04:33N 59°08' E 010°14'1 1.4
2014-Jul-22 03:33N 59°06' E 010°14'0 0.1
2014-Jul-22 02:33N 59°06' E 010°14'0 0.0
2014-Jul-22 01:33N 59°06' E 010°14'0 0.0
2014-Jul-22 00:33N 59°06' E 010°14'0 0.0
2014-Jul-21 23:33N 59°06' E 010°14'0 0.0
2014-Jul-21 22:33N 59°06' E 010°14'0 0.0
2014-Jul-21 21:33N 59°06' E 010°14'0 0.0
2014-Jul-21 20:34N 59°06' E 010°14'0 0.0
2014-Jul-21 20:18N 59°06' E 010°14'0 0.0
2014-Jul-21 19:33N 59°06' E 010°14'0 0.0
2014-Jul-21 18:33N 59°06' E 010°14'1 1.2
2014-Jul-21 17:33N 59°07' E 010°14'2 2.1
2014-Jul-21 16:33N 59°05' E 010°14'1414.0
2014-Jul-21 15:33N 59°01' E 010°41'1615.3
2014-Jul-21 14:32N 58°56' E 011°09'1 0.7
2014-Jul-21 13:33N 58°56' E 011°10'1312.8
2014-Jul-21 12:33N 59°02' E 010°48'1716.6
2014-Jul-21 11:33N 59°02' E 010°16'6 5.7
2014-Jul-21 10:33N 59°08' E 010°14'6 6.1
2014-Jul-21 09:33N 59°02' E 010°16'1717.4
2014-Jul-21 08:33N 59°01' E 010°50'1211.5
2014-Jul-21 07:33N 58°56' E 011°10'9 8.6
2014-Jul-21 06:33N 59°00' E 010°56'1716.7
2014-Jul-21 05:33N 59°01' E 010°23'8 8.5
2014-Jul-21 04:33N 59°08' E 010°14'1 1.4
2014-Jul-21 03:33N 59°06' E 010°14'0 0.1
2014-Jul-21 02:33N 59°06' E 010°14'0 0.0
2014-Jul-21 01:33N 59°06' E 010°14'0 0.0
2014-Jul-21 00:33N 59°06' E 010°14'0 0.0
2014-Jul-20 23:33N 59°06' E 010°14'0 0.0
2014-Jul-20 22:33N 59°06' E 010°14'0 0.0
2014-Jul-20 21:33N 59°06' E 010°14'0 0.0
2014-Jul-20 20:33N 59°06' E 010°14'0 0.0
2014-Jul-20 19:33N 59°06' E 010°14'0 0.0
2014-Jul-20 18:33N 59°06' E 010°14'1 1.1
2014-Jul-20 17:31N 59°07' E 010°14'2 1.6
2014-Jul-20 16:33N 59°06' E 010°14'1413.9
2014-Jul-20 15:33N 59°01' E 010°40'  

Dump ship's entire track history